Terminal Aerodrome Forecast
Issued by NWS

Home | Current Version | Previous Version | Text Only | Print | Product List | Glossary On
Versions: 1 2 3 4 5 6 7 8 9 10 11 12 13 14 15 16 17 18 19
445
FTUS43 KDLH 172332
TAFHYR
TAF
KHYR 172332Z 1800/1824 25004KT P6SM SKC
     FM181600 15006KT P6SM SCT050 BKN100
     FM181900 17006KT P6SM VCSH BKN050=

USA.gov is the U.S. government's official web portal to all federal, state and local government web resources and services.